createdAt,value
2018-07-17T00:01:46.772Z,99.90
2018-07-17T00:04:15.962Z,99.90
2018-07-17T00:06:45.016Z,99.90
2018-07-17T00:11:43.002Z,99.90
2018-07-17T00:14:12.159Z,99.90
2018-07-17T00:16:41.312Z,99.90
2018-07-17T00:19:10.472Z,99.90
2018-07-17T00:21:39.669Z,99.90
2018-07-17T00:24:08.927Z,99.90
2018-07-17T00:26:38.066Z,99.90
2018-07-17T00:29:07.206Z,99.90
2018-07-17T00:31:36.583Z,99.90
2018-07-17T00:34:05.948Z,99.90
2018-07-17T00:36:35.005Z,99.90
2018-07-17T00:39:05.064Z,99.90
2018-07-17T00:41:34.174Z,99.90
2018-07-17T00:44:03.336Z,99.90
2018-07-17T00:46:32.543Z,99.90
2018-07-17T00:49:01.811Z,99.90
2018-07-17T00:51:31.027Z,99.90
2018-07-17T00:54:00.158Z,99.90
2018-07-17T00:56:29.384Z,99.90
2018-07-17T00:58:58.562Z,99.90
2018-07-17T01:04:07.733Z,99.90
2018-07-17T01:06:42.908Z,99.90
2018-07-17T01:09:17.656Z,99.90
2018-07-17T01:11:52.619Z,99.90
2018-07-17T01:14:30.065Z,99.90
2018-07-17T01:16:59.578Z,99.90
2018-07-17T01:21:58.550Z,99.90
2018-07-17T01:24:39.389Z,99.90
2018-07-17T01:27:09.505Z,99.90
2018-07-17T01:29:39.378Z,99.90
2018-07-17T01:32:09.393Z,99.90
2018-07-17T01:34:39.440Z,99.90
2018-07-17T01:37:09.410Z,99.90
2018-07-17T01:39:39.447Z,99.90
2018-07-17T01:42:09.433Z,99.90
2018-07-17T01:44:39.985Z,99.90
2018-07-17T01:47:09.610Z,99.90
2018-07-17T01:49:39.073Z,99.90
2018-07-17T01:52:08.366Z,99.90
2018-07-17T01:54:38.354Z,99.90
2018-07-17T01:57:08.123Z,99.90
2018-07-17T01:59:37.682Z,99.90
2018-07-17T02:02:07.291Z,99.90
2018-07-17T02:04:37.195Z,99.90
2018-07-17T02:07:06.632Z,99.90
2018-07-17T02:09:36.612Z,99.90
2018-07-17T02:12:06.499Z,99.90
2018-07-17T02:14:35.569Z,99.90
2018-07-17T02:17:04.963Z,99.90
2018-07-17T02:19:34.127Z,99.90
2018-07-17T02:22:03.148Z,99.90
2018-07-17T02:27:00.892Z,99.90
2018-07-17T02:29:30.041Z,99.90
2018-07-17T02:31:59.091Z,99.90
2018-07-17T02:34:28.297Z,99.90
2018-07-17T02:36:57.419Z,99.90
2018-07-17T02:39:26.523Z,99.90
2018-07-17T02:41:55.611Z,99.90
2018-07-17T02:44:24.774Z,99.90
2018-07-17T02:49:22.785Z,99.90
2018-07-17T02:51:52.091Z,99.90
2018-07-17T02:54:21.428Z,99.90
2018-07-17T02:56:50.497Z,99.90
2018-07-17T02:59:20.230Z,99.90
2018-07-17T03:01:49.480Z,99.90
2018-07-17T03:04:18.739Z,99.90
2018-07-17T03:06:47.784Z,99.90
2018-07-17T03:09:16.972Z,99.90
2018-07-17T03:11:46.237Z,99.90
2018-07-17T03:14:15.445Z,99.90
2018-07-17T03:16:44.594Z,99.90
2018-07-17T03:21:42.371Z,99.90
2018-07-17T03:24:11.516Z,99.90
2018-07-17T03:29:09.364Z,99.90
2018-07-17T03:34:07.408Z,99.90
2018-07-17T03:36:36.753Z,99.90
2018-07-17T03:39:07.682Z,99.90
2018-07-17T03:41:36.970Z,99.90
2018-07-17T03:44:06.162Z,99.90
2018-07-17T03:46:35.289Z,99.90
2018-07-17T03:49:04.428Z,99.90
2018-07-17T03:51:33.776Z,99.90
2018-07-17T03:56:31.684Z,99.90
2018-07-17T03:59:00.886Z,99.90
2018-07-17T04:03:58.903Z,99.90
2018-07-17T04:06:28.262Z,99.90
2018-07-17T04:08:57.685Z,99.90
2018-07-17T04:11:26.901Z,99.90
2018-07-17T04:13:56.207Z,99.90
2018-07-17T04:16:25.601Z,99.90
2018-07-17T04:18:54.780Z,99.90
2018-07-17T04:21:24.007Z,99.90
2018-07-17T04:23:53.393Z,99.90
2018-07-17T04:26:22.748Z,99.90
2018-07-17T04:28:52.028Z,99.90
2018-07-17T04:31:21.340Z,98.90
2018-07-17T04:36:19.338Z,91.60
2018-07-17T04:38:48.475Z,87.00
2018-07-17T04:41:17.690Z,84.60
2018-07-17T04:43:49.366Z,80.60
2018-07-17T04:46:18.453Z,75.70
2018-07-17T04:48:47.512Z,74.70
2018-07-17T04:51:16.642Z,72.00
2018-07-17T04:55:15.053Z,69.40
2018-07-17T04:57:44.358Z,66.40
2018-07-17T05:00:13.493Z,62.30
2018-07-17T05:02:42.671Z,60.00
2018-07-17T05:05:12.065Z,59.00
2018-07-17T05:07:41.497Z,58.00
2018-07-17T05:10:10.798Z,58.30
2018-07-17T05:12:40.117Z,56.70
2018-07-17T05:15:09.447Z,54.80
2018-07-17T05:17:38.987Z,52.80
2018-07-17T05:20:08.278Z,51.10
2018-07-17T05:22:37.473Z,49.80
2018-07-17T05:25:06.724Z,48.20
2018-07-17T05:27:36.025Z,46.70
2018-07-17T05:30:05.570Z,46.10
2018-07-17T05:32:34.967Z,45.10
2018-07-17T05:35:04.406Z,43.50
2018-07-17T05:37:33.872Z,42.40
2018-07-17T05:40:03.434Z,40.80
2018-07-17T05:42:32.734Z,39.90
2018-07-17T05:45:02.195Z,39.00
2018-07-17T05:47:31.506Z,38.30
2018-07-17T05:50:00.669Z,37.70
2018-07-17T05:52:29.941Z,37.10
2018-07-17T05:54:59.125Z,36.80
2018-07-17T05:57:28.294Z,35.30
2018-07-17T05:59:57.419Z,34.30
2018-07-17T06:02:26.694Z,32.80
2018-07-17T06:04:55.767Z,31.70
2018-07-17T06:07:24.854Z,30.60
2018-07-17T06:09:54.117Z,30.50
2018-07-17T06:12:23.145Z,29.90
2018-07-17T06:14:52.651Z,28.80
2018-07-17T06:17:21.780Z,29.60
2018-07-17T06:19:50.794Z,29.40
2018-07-17T06:22:19.940Z,29.00
2018-07-17T06:24:49.102Z,28.80
2018-07-17T06:27:18.260Z,28.60
2018-07-17T06:29:47.416Z,28.30
2018-07-17T06:32:16.447Z,28.00
2018-07-17T06:34:45.399Z,28.40
2018-07-17T06:37:14.477Z,28.60
2018-07-17T06:39:44.022Z,28.40
2018-07-17T06:42:13.093Z,28.40
2018-07-17T06:47:10.748Z,26.90
2018-07-17T06:49:39.753Z,25.70
2018-07-17T06:52:08.980Z,24.70
2018-07-17T06:54:38.214Z,24.20
2018-07-17T06:57:07.411Z,23.80
2018-07-17T06:59:36.668Z,23.80
2018-07-17T07:02:05.902Z,24.30
2018-07-17T07:04:35.219Z,24.40
2018-07-17T07:07:04.593Z,24.80
2018-07-17T07:12:02.543Z,24.60
2018-07-17T07:14:31.649Z,24.80
2018-07-17T07:17:00.885Z,24.70
2018-07-17T07:19:30.342Z,24.50
2018-07-17T07:21:59.713Z,24.20
2018-07-17T07:24:29.017Z,24.00
2018-07-17T07:26:58.201Z,24.00
2018-07-17T07:29:27.476Z,24.20
2018-07-17T07:31:56.738Z,24.90
2018-07-17T07:34:25.820Z,24.90
2018-07-17T07:36:55.283Z,25.50
2018-07-17T07:39:24.320Z,25.50
2018-07-17T07:41:53.404Z,25.10
2018-07-17T07:44:22.584Z,23.90
2018-07-17T07:46:51.817Z,23.10
2018-07-17T07:49:21.127Z,22.80
2018-07-17T07:51:50.463Z,22.90
2018-07-17T07:56:48.421Z,21.90
2018-07-17T08:01:46.766Z,20.60
2018-07-17T08:04:16.029Z,20.60
2018-07-17T08:06:45.368Z,20.60
2018-07-17T08:09:14.511Z,19.90
2018-07-17T08:11:43.880Z,20.00
2018-07-17T08:14:13.008Z,19.70
2018-07-17T08:16:42.316Z,19.90
2018-07-17T08:19:11.287Z,19.90
2018-07-17T08:21:40.317Z,20.00
2018-07-17T08:24:09.527Z,20.70
2018-07-17T08:26:38.791Z,21.20
2018-07-17T08:29:07.836Z,21.50
2018-07-17T08:31:37.185Z,21.20
2018-07-17T08:34:06.616Z,21.00
2018-07-17T08:39:06.050Z,19.80
2018-07-17T08:41:35.241Z,19.30
2018-07-17T08:44:04.368Z,19.20
2018-07-17T08:46:33.492Z,18.70
2018-07-17T08:49:02.782Z,19.00
2018-07-17T08:51:32.071Z,18.90
2018-07-17T08:54:01.258Z,18.90
2018-07-17T08:56:30.428Z,18.50
2018-07-17T08:58:59.740Z,18.30
2018-07-17T09:01:29.007Z,18.20
2018-07-17T09:03:58.361Z,18.00
2018-07-17T09:06:27.750Z,17.90
2018-07-17T09:08:56.928Z,17.70
2018-07-17T09:11:26.088Z,17.70
2018-07-17T09:13:55.242Z,19.10
2018-07-17T09:16:24.512Z,19.10
2018-07-17T09:18:53.756Z,19.60
2018-07-17T09:21:23.047Z,19.20
2018-07-17T09:26:20.859Z,17.80
2018-07-17T09:28:50.133Z,18.60
2018-07-17T09:31:19.375Z,18.00
2018-07-17T09:33:48.626Z,18.60
2018-07-17T09:36:17.718Z,18.60
2018-07-17T09:38:47.051Z,19.40
2018-07-17T09:41:16.322Z,20.40
2018-07-17T09:43:45.583Z,20.40
2018-07-17T09:46:14.924Z,21.00
2018-07-17T09:48:44.222Z,21.00
2018-07-17T09:51:13.429Z,19.30
2018-07-17T09:53:42.606Z,19.40
2018-07-17T09:56:11.811Z,18.40
2018-07-17T09:58:41.196Z,18.00
2018-07-17T10:01:15.863Z,17.50
2018-07-17T10:03:45.363Z,16.70
2018-07-17T10:06:14.700Z,16.80
2018-07-17T10:08:44.026Z,15.70
2018-07-17T10:11:13.342Z,15.70
2018-07-17T10:13:42.603Z,15.60
2018-07-17T10:16:11.747Z,15.70
2018-07-17T10:18:41.796Z,15.90
2018-07-17T10:21:11.367Z,15.90
2018-07-17T10:23:40.690Z,16.50
2018-07-17T10:26:10.204Z,16.40
2018-07-17T10:31:08.313Z,15.90
2018-07-17T10:33:38.461Z,16.50
2018-07-17T10:36:07.973Z,16.50
2018-07-17T10:41:06.044Z,18.20
2018-07-17T10:43:35.143Z,18.80
2018-07-17T10:46:04.326Z,19.00
2018-07-17T10:48:33.520Z,18.20
2018-07-17T10:51:02.955Z,18.20
2018-07-17T10:53:32.225Z,18.10
2018-07-17T10:56:01.549Z,18.30
2018-07-17T11:00:59.521Z,17.80
2018-07-17T11:03:28.833Z,18.10
2018-07-17T11:05:58.020Z,18.90
2018-07-17T11:08:27.284Z,21.30
2018-07-17T11:10:56.447Z,21.40
2018-07-17T11:13:25.787Z,21.80
2018-07-17T11:15:54.971Z,23.20
2018-07-17T11:18:24.211Z,24.20
2018-07-17T11:20:53.419Z,24.70
2018-07-17T11:23:22.584Z,25.20
2018-07-17T11:25:51.795Z,27.10
2018-07-17T11:28:20.800Z,30.30
2018-07-17T11:30:49.809Z,31.00
2018-07-17T11:33:19.050Z,30.10
2018-07-17T11:35:48.059Z,30.50
2018-07-17T11:38:17.120Z,30.90
2018-07-17T11:40:46.319Z,31.10
2018-07-17T11:43:15.498Z,31.00
2018-07-17T11:45:44.757Z,31.40
2018-07-17T11:50:42.720Z,34.20
2018-07-17T11:53:11.950Z,35.30
2018-07-17T11:55:40.979Z,36.40
2018-07-17T11:58:10.362Z,36.40
2018-07-17T12:03:08.125Z,37.10
2018-07-17T12:05:37.406Z,37.30
2018-07-17T12:08:06.404Z,37.60
2018-07-17T12:10:36.269Z,37.70
2018-07-17T12:13:06.136Z,36.70
2018-07-17T12:15:35.384Z,36.00
2018-07-17T12:18:04.846Z,35.20
2018-07-17T12:23:02.954Z,32.30
2018-07-17T12:25:32.250Z,30.00
2018-07-17T12:30:30.236Z,28.50
2018-07-17T12:32:59.443Z,28.00
2018-07-17T12:35:28.549Z,25.80
2018-07-17T12:37:57.804Z,24.90
2018-07-17T12:40:27.006Z,24.20
2018-07-17T12:42:56.332Z,24.70
2018-07-17T12:45:25.522Z,25.20
2018-07-17T12:47:57.388Z,25.40
2018-07-17T12:50:26.656Z,26.20
2018-07-17T12:52:55.806Z,26.00
2018-07-17T12:55:24.857Z,24.20
2018-07-17T12:57:54.344Z,23.60
2018-07-17T13:00:23.579Z,22.60
2018-07-17T13:02:52.795Z,23.50
2018-07-17T13:05:21.949Z,23.40
2018-07-17T13:12:48.959Z,23.90
2018-07-17T13:15:18.224Z,24.10
2018-07-17T13:17:47.435Z,24.80
2018-07-17T13:22:45.478Z,27.30
2018-07-17T13:25:14.567Z,29.80
2018-07-17T13:27:43.812Z,30.80
2018-07-17T13:30:13.141Z,33.20
2018-07-17T13:32:42.280Z,37.40
2018-07-17T13:37:40.389Z,34.50
2018-07-17T13:40:09.749Z,35.40
2018-07-17T13:42:38.956Z,36.50
2018-07-17T13:45:08.451Z,37.30
2018-07-17T13:47:37.669Z,37.30
2018-07-17T13:50:06.932Z,38.10
2018-07-17T13:52:36.138Z,38.20
2018-07-17T13:57:34.398Z,38.30
2018-07-17T14:00:04.367Z,37.70
2018-07-17T14:02:33.491Z,38.30
2018-07-17T14:05:02.837Z,38.20
2018-07-17T14:07:31.993Z,38.20
2018-07-17T14:10:01.237Z,39.10
2018-07-17T14:12:30.691Z,39.40
2018-07-17T14:19:57.788Z,39.50
2018-07-17T14:22:26.981Z,39.30
2018-07-17T14:24:56.245Z,38.70
2018-07-17T14:27:25.390Z,38.50
2018-07-17T14:29:54.650Z,36.90
2018-07-17T14:32:23.829Z,37.10
2018-07-17T14:34:53.014Z,37.10
2018-07-17T14:37:22.230Z,36.50
2018-07-17T14:44:50.091Z,36.70
2018-07-17T14:47:19.208Z,36.30
2018-07-17T14:49:48.550Z,35.60
2018-07-17T14:52:17.900Z,34.10
2018-07-17T14:54:47.107Z,32.10
2018-07-17T14:57:16.251Z,31.20
2018-07-17T15:02:14.374Z,31.50
2018-07-17T15:04:43.674Z,31.40
2018-07-17T15:07:12.871Z,31.50
2018-07-17T15:09:42.010Z,31.70
2018-07-17T15:12:11.380Z,32.40
2018-07-17T15:14:40.503Z,33.10
2018-07-17T15:17:09.763Z,38.60
2018-07-17T15:19:38.794Z,40.60
2018-07-17T15:22:07.912Z,40.20
2018-07-17T15:24:37.047Z,38.50
2018-07-17T15:27:06.195Z,40.40
2018-07-17T15:29:35.368Z,40.90
2018-07-17T15:32:04.699Z,41.40
2018-07-17T16:59:01.547Z,42.30
2018-07-17T17:01:31.049Z,40.70
2018-07-17T17:04:00.733Z,41.10
2018-07-17T17:06:30.819Z,41.30
2018-07-17T17:09:01.192Z,41.50
2018-07-17T17:11:31.528Z,41.90
2018-07-17T17:14:01.734Z,42.20
2018-07-17T17:16:31.850Z,42.40
2018-07-17T17:19:02.498Z,42.70
2018-07-17T17:21:31.826Z,42.80
2018-07-17T17:26:31.455Z,43.80
2018-07-17T17:29:01.006Z,43.20
2018-07-17T17:31:30.912Z,43.40
2018-07-17T17:34:01.268Z,43.50
2018-07-17T17:36:31.574Z,44.00
2018-07-17T17:39:01.487Z,43.80
2018-07-17T17:41:31.488Z,43.80
2018-07-17T17:44:01.857Z,44.00
2018-07-17T17:46:31.636Z,44.30
2018-07-17T17:51:30.067Z,44.80
2018-07-17T17:53:59.907Z,45.00
2018-07-17T17:56:29.455Z,45.30
2018-07-17T17:58:59.069Z,45.30
2018-07-17T18:01:29.082Z,45.70
2018-07-17T18:03:59.095Z,45.90
2018-07-17T18:06:29.005Z,46.10
2018-07-17T18:08:59.081Z,46.30
2018-07-17T18:11:28.659Z,46.70
2018-07-17T18:13:58.150Z,46.80
2018-07-17T18:16:27.539Z,47.10
2018-07-17T18:21:26.074Z,46.80
2018-07-17T18:23:55.828Z,46.50
2018-07-17T18:26:25.141Z,46.50
2018-07-17T18:28:54.776Z,46.60
2018-07-17T18:31:24.203Z,46.60
2018-07-17T18:33:53.788Z,46.80
2018-07-17T18:36:23.858Z,46.90
2018-07-17T18:38:53.623Z,47.20
2018-07-17T18:41:23.732Z,47.50
2018-07-17T18:43:53.515Z,47.60
2018-07-17T18:46:23.631Z,47.90
2018-07-17T18:48:53.065Z,48.20
2018-07-17T18:51:23.054Z,48.50
2018-07-17T18:53:53.176Z,48.80
2018-07-17T18:58:52.085Z,49.60
2018-07-17T19:01:22.167Z,49.90
2018-07-17T19:03:52.149Z,50.30
2018-07-17T19:06:21.917Z,50.60
2018-07-17T19:08:51.314Z,51.20
2018-07-17T19:11:21.201Z,51.60
2018-07-17T19:13:50.615Z,52.00
2018-07-17T19:16:20.478Z,52.70
2018-07-17T19:18:49.933Z,53.20
2018-07-17T19:23:49.033Z,54.20
2018-07-17T19:26:18.589Z,54.80
2018-07-17T19:28:48.269Z,55.90
2018-07-17T19:31:17.831Z,55.80
2018-07-17T19:33:47.386Z,55.20
2018-07-17T19:36:17.093Z,55.40
2018-07-17T19:38:46.918Z,55.60
2018-07-17T19:41:16.740Z,55.40
2018-07-17T19:43:46.433Z,56.40
2018-07-17T19:46:16.599Z,55.90
2018-07-17T19:51:15.675Z,56.70
2018-07-17T19:53:45.365Z,57.10
2018-07-17T19:56:15.379Z,57.50
2018-07-17T19:58:45.715Z,58.00
2018-07-17T20:01:16.391Z,58.30
2018-07-17T20:03:46.534Z,58.70
2018-07-17T20:06:16.904Z,59.50
2018-07-17T20:08:48.775Z,59.70
2018-07-17T20:11:19.108Z,59.90
2018-07-17T20:13:49.482Z,60.30
2018-07-17T20:16:19.677Z,60.30
2018-07-17T20:18:49.906Z,60.30
2018-07-17T20:21:20.111Z,60.30
2018-07-17T20:23:50.628Z,60.90
2018-07-17T20:26:20.984Z,61.50
2018-07-17T20:28:51.327Z,61.50
2018-07-17T20:31:22.002Z,61.70
2018-07-17T20:33:52.263Z,62.00
2018-07-17T20:36:21.600Z,62.30
2018-07-17T20:38:50.672Z,62.70
2018-07-17T20:41:20.021Z,63.20
2018-07-17T20:43:49.182Z,64.50
2018-07-17T20:46:18.555Z,63.90
2018-07-17T20:48:47.785Z,64.90
2018-07-17T20:51:17.169Z,64.40
2018-07-17T20:53:46.412Z,64.60
2018-07-17T20:56:15.675Z,64.90
2018-07-17T20:58:44.909Z,65.80
2018-07-17T21:01:14.200Z,66.70
2018-07-17T21:06:12.145Z,68.50
2018-07-17T21:08:41.533Z,68.00
2018-07-17T21:11:10.810Z,68.20
2018-07-17T21:13:39.894Z,68.40
2018-07-17T21:16:09.099Z,67.90
2018-07-17T21:18:38.586Z,67.30
2018-07-17T21:21:07.772Z,66.90
2018-07-17T21:23:37.128Z,66.30
2018-07-17T21:26:06.259Z,67.00
2018-07-17T21:28:35.451Z,67.10
2018-07-17T21:31:04.599Z,67.20
2018-07-17T21:33:33.734Z,67.40
2018-07-17T21:36:03.082Z,67.60
2018-07-17T21:38:32.185Z,67.60
2018-07-17T21:43:30.114Z,68.70
2018-07-17T21:45:59.295Z,69.10
2018-07-17T21:50:57.362Z,70.20
2018-07-17T21:53:26.878Z,70.50
2018-07-17T21:55:56.044Z,71.10
2018-07-17T21:58:25.466Z,71.20
2018-07-17T22:00:54.760Z,71.20
2018-07-17T22:03:24.295Z,71.10
2018-07-17T22:05:53.591Z,71.10
2018-07-17T22:08:22.881Z,71.30
2018-07-17T22:10:52.030Z,71.10
2018-07-17T22:13:21.203Z,71.00
2018-07-17T22:15:51.125Z,71.00
2018-07-17T22:18:20.230Z,71.00
2018-07-17T22:20:49.661Z,71.00
2018-07-17T22:25:47.650Z,70.70
2018-07-17T22:28:16.789Z,70.70
2018-07-17T22:30:46.011Z,70.70
2018-07-17T22:33:15.371Z,70.70
2018-07-17T22:35:44.451Z,70.80
2018-07-17T22:38:13.844Z,70.90
2018-07-17T22:40:42.933Z,71.20
2018-07-17T22:43:12.205Z,71.80
2018-07-17T22:45:41.374Z,72.30
2018-07-17T22:48:10.594Z,72.70
2018-07-17T22:50:39.803Z,73.20
2018-07-17T22:53:09.024Z,73.80
2018-07-17T22:55:38.232Z,74.40
2018-07-17T22:58:07.596Z,75.10
2018-07-17T23:00:36.657Z,76.50
2018-07-17T23:03:05.886Z,77.50
2018-07-17T23:05:35.122Z,78.40
2018-07-17T23:08:04.776Z,79.20
2018-07-17T23:10:34.031Z,80.70
2018-07-17T23:13:03.314Z,82.10
2018-07-17T23:15:32.689Z,82.90
2018-07-17T23:23:00.302Z,86.00
2018-07-17T23:25:31.793Z,87.20
2018-07-17T23:28:01.114Z,88.00
2018-07-17T23:35:27.920Z,90.20
2018-07-17T23:37:57.129Z,90.50
2018-07-17T23:40:26.521Z,91.00
2018-07-17T23:42:55.887Z,91.50
2018-07-17T23:45:25.204Z,91.50
2018-07-17T23:47:54.411Z,91.50
2018-07-17T23:50:23.564Z,91.50
2018-07-17T23:52:52.931Z,91.90
2018-07-17T23:57:50.775Z,93.20
